Time;durP1;ratioP1;P1;durP2;ratioP2;P2;SDS_P1;SDS_P2;PMS_P1;PMS_P2;Temp;Humidity;BMP_temperature;BMP_pressure;BME280_temperature;BME280_humidity;BME280_pressure;Samples;Min_cycle;Max_cycle;Signal;HPM_P1;HPM_P2
2021/05/11 00:02:58;;;;;;;1.82;1.00;;;;;;;15.29;96.88;97470.16;3650491;80;44072;-27
2021/05/11 00:08:07;;;;;;;1.15;1.05;;;;;;;15.20;100.00;97465.49;3650478;80;43703;-26
2021/05/11 00:13:13;;;;;;;1.07;1.00;;;;;;;15.18;99.12;97458.62;3644848;81;44045;-26
2021/05/11 00:18:20;;;;;;;1.98;1.00;;;;;;;15.06;100.00;97440.30;3648463;81;44082;-26
2021/05/11 00:23:30;;;;;;;2.40;1.07;;;;;;;15.07;99.33;97424.34;3650298;81;43679;-26
2021/05/11 00:28:36;;;;;;;1.65;0.98;;;;;;;15.23;96.69;97418.09;3650355;80;43429;-27
2021/05/11 00:33:42;;;;;;;2.12;0.95;;;;;;;15.20;97.49;97431.58;3649838;81;44065;-26
2021/05/11 00:38:48;;;;;;;1.50;1.10;;;;;;;15.10;97.82;97440.20;3650200;80;44083;-26
2021/05/11 00:43:56;;;;;;;2.27;1.10;;;;;;;14.84;100.00;97430.25;3647329;80;43739;-26
2021/05/11 00:49:02;;;;;;;2.10;1.30;;;;;;;14.67;100.00;97431.23;3650160;80;43677;-26
2021/05/11 00:54:08;;;;;;;2.02;1.10;;;;;;;14.57;100.00;97414.55;3650473;80;44075;-23
2021/05/11 00:59:17;;;;;;;1.92;1.10;;;;;;;14.60;100.00;97427.69;3652859;80;44086;-22
2021/05/11 01:04:24;;;;;;;1.40;1.20;;;;;;;14.44;100.00;97418.13;3650807;80;43725;-23
2021/05/11 01:09:29;;;;;;;1.52;1.30;;;;;;;14.49;100.00;97404.77;3647155;80;44620;-23
2021/05/11 01:14:35;;;;;;;2.40;1.35;;;;;;;14.27;100.00;97416.38;3653768;80;44479;-23
2021/05/11 01:19:46;;;;;;;1.55;1.30;;;;;;;14.23;100.00;97402.40;3651192;81;42893;-23
2021/05/11 01:24:54;;;;;;;2.87;1.40;;;;;;;14.23;100.00;97408.35;3649836;81;43560;-23
2021/05/11 01:30:12;;;;;;;1.62;1.50;;;;;;;14.06;100.00;97393.87;3655041;80;43663;-24
2021/05/11 01:51:33;;;;;;;2.02;1.30;;;;;;;13.95;100.00;97360.66;3651350;80;43470;-22
2021/05/11 01:57:02;;;;;;;2.75;1.37;;;;;;;13.82;100.00;97371.80;3649424;81;43164;-22
2021/05/11 02:23:47;;;;;;;3.27;1.60;;;;;;;13.34;100.00;97371.95;3620172;81;44601;-22
2021/05/11 02:28:52;;;;;;;1.92;1.70;;;;;;;13.31;100.00;97373.70;3647912;80;44049;-23
2021/05/11 02:33:59;;;;;;;2.30;1.80;;;;;;;13.29;100.00;97367.66;3649481;80;44188;-23
2021/05/11 02:39:07;;;;;;;2.27;1.80;;;;;;;13.25;100.00;97367.23;3650449;81;44158;-22
2021/05/11 02:44:16;;;;;;;3.05;1.77;;;;;;;13.22;100.00;97356.32;3651401;80;44114;-24
2021/05/11 02:49:23;;;;;;;2.05;1.70;;;;;;;13.21;100.00;97360.56;3654564;80;43710;-23
2021/05/11 02:54:29;;;;;;;2.30;2.10;;;;;;;13.19;100.00;97359.42;3704630;80;43677;-24
2021/05/11 02:59:35;;;;;;;2.20;1.92;;;;;;;13.24;100.00;97356.10;3704695;79;44360;-23
2021/05/11 03:04:41;;;;;;;2.55;2.02;;;;;;;13.22;100.00;97346.86;3702719;79;43533;-23
2021/05/11 03:09:47;;;;;;;2.52;2.20;;;;;;;13.15;100.00;97346.52;3704550;80;43349;-23
2021/05/11 03:14:53;;;;;;;2.25;2.02;;;;;;;13.11;100.00;97336.64;3709707;79;44146;-23
2021/05/11 03:19:59;;;;;;;3.20;2.15;;;;;;;13.08;100.00;97332.45;3707556;79;43373;-23
2021/05/11 03:25:07;;;;;;;3.12;1.98;;;;;;;13.07;100.00;97331.31;3704649;80;43471;-23
2021/05/11 03:30:17;;;;;;;3.70;2.00;;;;;;;13.07;100.00;97321.84;3702776;79;43677;-23
2021/05/11 03:35:23;;;;;;;2.70;2.30;;;;;;;13.04;100.00;97313.64;3705390;80;44062;-23
2021/05/11 03:40:29;;;;;;;2.77;2.33;;;;;;;13.03;100.00;97334.09;3704983;79;43702;-22
2021/05/11 03:45:39;;;;;;;4.10;2.35;;;;;;;12.92;100.00;97332.84;3706265;79;44033;-21
2021/05/11 03:50:44;;;;;;;4.08;2.20;;;;;;;12.91;100.00;97313.06;3704616;80;43756;-24
2021/05/11 03:55:51;;;;;;;2.87;2.42;;;;;;;12.94;100.00;97306.41;3704444;79;44458;-24
2021/05/11 04:00:58;;;;;;;2.95;2.55;;;;;;;12.86;100.00;97306.10;3704892;79;43719;-24
2021/05/11 04:06:05;;;;;;;3.33;2.50;;;;;;;12.85;100.00;97296.83;3705296;80;43309;-24
2021/05/11 04:11:23;;;;;;;3.37;2.62;;;;;;;12.84;100.00;97284.34;3705115;80;43722;-24
2021/05/11 04:16:24;;;;;;;3.12;2.60;;;;;;;12.90;100.00;97297.88;3611000;80;43144;-24
2021/05/11 04:21:30;;;;;;;3.85;2.70;;;;;;;12.87;100.00;97323.99;3595890;81;43458;-25
2021/05/11 04:26:36;;;;;;;4.20;2.62;;;;;;;12.81;100.00;97298.29;3699378;79;43700;-24
2021/05/11 04:31:42;;;;;;;6.10;2.87;;;;;;;12.85;100.00;97301.73;3702626;80;44158;-23
2021/05/11 04:36:48;;;;;;;3.70;3.20;;;;;;;12.86;100.00;97334.48;3705209;80;44008;-23
2021/05/11 04:41:55;;;;;;;3.50;2.80;;;;;;;12.85;100.00;97343.63;3709871;79;43722;-23
2021/05/11 04:47:08;;;;;;;4.25;3.20;;;;;;;12.84;100.00;97325.73;3701429;79;44094;-23
2021/05/11 04:52:11;;;;;;;3.58;2.98;;;;;;;12.91;100.00;97340.63;3679984;80;43980;-24
2021/05/11 04:57:18;;;;;;;3.75;3.05;;;;;;;12.96;100.00;97339.48;3643033;80;43713;-23
2021/05/11 05:02:25;;;;;;;6.53;3.42;;;;;;;13.06;100.00;97362.09;3642564;80;44146;-23
2021/05/11 05:07:31;;;;;;;3.98;3.05;;;;;;;13.09;100.00;97350.34;3641466;81;43337;-23
2021/05/11 05:12:37;;;;;;;4.65;3.40;;;;;;;13.16;100.00;97367.94;3644296;80;44389;-23
2021/05/11 05:17:43;;;;;;;5.30;3.20;;;;;;;13.15;100.00;97373.03;3639885;81;43135;-23
2021/05/11 05:22:49;;;;;;;4.17;3.30;;;;;;;13.16;100.00;97363.87;3642366;80;43710;-23
2021/05/11 05:27:58;;;;;;;3.50;3.15;;;;;;;13.15;100.00;97350.05;3644438;80;43439;-23
2021/05/11 05:33:05;;;;;;;3.87;3.42;;;;;;;13.21;100.00;97335.72;3640618;80;44217;-24
2021/05/11 05:38:11;;;;;;;4.62;3.45;;;;;;;13.28;100.00;97345.70;3642918;81;44098;-23
2021/05/11 05:43:18;;;;;;;6.72;4.17;;;;;;;13.35;100.00;97354.66;3646749;80;43036;-23
2021/05/11 05:48:25;;;;;;;4.47;3.80;;;;;;;13.46;100.00;97336.52;3642118;81;44073;-23
2021/05/11 05:53:36;;;;;;;4.50;3.72;;;;;;;13.65;100.00;97348.91;3642193;80;44064;-23
2021/05/11 05:58:42;;;;;;;5.50;3.87;;;;;;;13.71;100.00;97348.06;3645776;80;43194;-24
2021/05/11 06:03:51;;;;;;;5.20;3.90;;;;;;;13.85;100.00;97361.09;3641884;80;43404;-23
2021/05/11 06:08:58;;;;;;;4.95;3.90;;;;;;;13.89;100.00;97357.44;3635870;81;43441;-24
2021/05/11 06:14:12;;;;;;;4.95;4.30;;;;;;;14.00;100.00;97348.69;3647298;80;44083;-24
2021/05/11 06:19:17;;;;;;;5.10;4.60;;;;;;;14.20;100.00;97358.65;3641936;80;44130;-25
2021/05/11 06:24:23;;;;;;;5.12;4.50;;;;;;;14.24;100.00;97347.72;3642714;80;43285;-24
2021/05/11 06:29:30;;;;;;;6.00;4.58;;;;;;;14.31;100.00;97340.39;3647112;80;44034;-24
2021/05/11 06:34:38;;;;;;;5.95;4.53;;;;;;;14.43;100.00;97341.41;3638164;80;43662;-24
2021/05/11 06:39:48;;;;;;;8.40;4.47;;;;;;;14.51;100.00;97351.72;3640282;81;43715;-24
2021/05/11 06:45:04;;;;;;;5.03;4.50;;;;;;;14.64;100.00;97338.13;3642971;80;43255;-24
2021/05/11 06:50:15;;;;;;;6.15;4.78;;;;;;;14.68;100.00;97339.92;3642862;81;44090;-24
2021/05/11 06:55:21;;;;;;;6.45;5.03;;;;;;;14.94;100.00;97343.03;3649606;80;44102;-24
2021/05/11 07:00:27;;;;;;;5.65;4.87;;;;;;;14.89;100.00;97351.81;3655273;80;43307;-24
2021/05/11 07:05:35;;;;;;;5.22;4.60;;;;;;;15.14;100.00;97367.86;3653312;80;44061;-24
2021/05/11 07:10:42;;;;;;;7.05;5.30;;;;;;;15.17;100.00;97354.69;3655679;80;44046;-24
2021/05/11 07:15:50;;;;;;;6.22;4.87;;;;;;;15.21;100.00;97341.54;3646582;81;43708;-24
2021/05/11 07:20:59;;;;;;;5.97;4.95;;;;;;;15.54;100.00;97343.20;3581686;83;44031;-24
2021/05/11 07:26:11;;;;;;;6.03;5.10;;;;;;;15.62;100.00;97347.53;3656992;80;44083;-24
2021/05/11 07:31:16;;;;;;;7.20;5.30;;;;;;;15.86;100.00;97354.05;3653011;81;44080;-24
2021/05/11 07:36:23;;;;;;;6.17;4.80;;;;;;;16.14;100.00;97358.20;3653226;81;43715;-24
2021/05/11 07:41:32;;;;;;;6.45;5.28;;;;;;;16.21;100.00;97355.42;3656814;80;43686;-24
2021/05/11 07:46:48;;;;;;;6.17;5.58;;;;;;;16.33;100.00;97343.58;3653356;80;44052;-24
2021/05/11 08:19:06;;;;;;;6.40;5.47;;;;;;;16.98;100.00;97311.47;3658346;80;43345;-24
2021/05/11 08:29:37;;;;;;;6.28;5.55;;;;;;;17.28;100.00;97282.58;3601215;81;43338;-24
2021/05/11 08:34:45;;;;;;;6.70;5.37;;;;;;;17.55;100.00;97274.30;3652560;81;44019;-24
2021/05/11 08:39:52;;;;;;;6.72;5.47;;;;;;;17.70;100.00;97264.83;3658442;80;44542;-24
2021/05/11 08:45:03;;;;;;;6.62;6.00;;;;;;;17.74;100.00;97259.21;3660463;79;43191;-25
2021/05/11 08:50:10;;;;;;;7.22;6.20;;;;;;;17.99;100.00;97259.54;3658265;81;43466;-24
2021/05/11 08:55:33;;;;;;;7.42;6.72;;;;;;;18.10;100.00;97266.06;3653941;81;43762;-23
2021/05/11 09:06:16;;;;;;;8.68;6.33;;;;;;;18.32;100.00;97252.10;3653494;80;44039;-22
2021/05/11 09:27:55;;;;;;;7.75;5.87;;;;;;;19.04;100.00;97248.61;3657043;80;43673;-23
2021/05/11 09:33:05;;;;;;;6.58;5.47;;;;;;;19.31;100.00;97250.73;3652692;81;43722;-24
2021/05/11 09:54:49;;;;;;;5.83;5.22;;;;;;;19.49;96.94;97230.55;3649875;80;43691;-23
2021/05/11 10:39:14;;;;;;;7.35;5.60;;;;;;;21.57;85.60;97225.67;3479469;84;43681;-25
2021/05/11 10:44:44;;;;;;;7.45;5.50;;;;;;;21.57;82.82;97216.90;3613940;80;44230;-25
2021/05/11 10:49:38;;;;;;;6.65;5.80;;;;;;;21.76;81.56;97222.83;3639818;81;44102;-25
2021/05/11 10:54:52;;;;;;;8.05;5.40;;;;;;;21.93;80.81;97246.52;3639520;80;44118;-25
2021/05/11 11:05:40;;;;;;;6.67;4.92;;;;;;;21.82;82.54;97238.20;3641199;80;44023;-25
2021/05/11 11:10:46;;;;;;;6.15;5.55;;;;;;;21.54;82.21;97240.17;3646424;80;43416;-25
2021/05/11 11:15:53;;;;;;;6.62;5.45;;;;;;;21.57;80.44;97238.81;3642753;80;44208;-25
2021/05/11 11:21:21;;;;;;;5.97;5.20;;;;;;;21.62;80.91;97210.66;3643228;80;44735;-25
2021/05/11 11:26:28;;;;;;;5.85;4.85;;;;;;;21.90;77.41;97197.70;3648943;80;44494;-24
2021/05/11 11:31:37;;;;;;;5.75;4.30;;;;;;;22.39;74.06;97187.80;3642837;80;43427;-24
2021/05/11 11:36:46;;;;;;;6.70;5.83;;;;;;;22.62;73.78;97178.84;3643074;81;43398;-24
2021/05/11 11:41:54;;;;;;;7.70;6.33;;;;;;;22.83;74.11;97152.80;3649500;80;43693;-24
2021/05/11 11:47:04;;;;;;;6.37;5.72;;;;;;;22.67;74.70;97165.11;3642278;80;43407;-25
2021/05/11 11:52:14;;;;;;;8.10;5.90;;;;;;;22.73;73.72;97170.06;3638351;81;43282;-24
2021/05/11 12:02:56;;;;;;;6.50;5.87;;;;;;;22.59;75.59;97179.38;3651150;80;42641;-24
2021/05/11 12:08:06;;;;;;;6.25;5.03;;;;;;;22.36;76.26;97197.08;3652078;81;44047;-24
2021/05/11 12:13:13;;;;;;;8.18;5.30;;;;;;;22.51;75.37;97198.55;3650096;80;44130;-24
2021/05/11 12:18:20;;;;;;;7.12;4.67;;;;;;;22.84;74.71;97199.75;3652747;81;44082;-24
2021/05/11 12:23:28;;;;;;;6.75;4.35;;;;;;;22.40;74.55;97199.58;3651589;81;43339;-24
2021/05/11 12:28:36;;;;;;;6.17;4.97;;;;;;;22.23;76.50;97196.48;3654502;80;44124;-24
2021/05/11 12:33:43;;;;;;;5.72;4.65;;;;;;;22.07;74.44;97203.81;3651983;80;42806;-24
2021/05/11 12:38:51;;;;;;;6.17;5.17;;;;;;;22.19;75.84;97213.21;3650239;81;44023;-24
2021/05/11 12:43:57;;;;;;;4.75;4.17;;;;;;;22.45;75.48;97217.48;3655940;80;43408;-24
2021/05/11 12:49:05;;;;;;;6.55;4.85;;;;;;;22.62;75.98;97220.83;3652037;80;43763;-24
2021/05/11 12:54:30;;;;;;;5.90;4.78;;;;;;;22.53;75.12;97227.93;3653456;81;43476;-24
2021/05/11 12:59:43;;;;;;;6.33;5.00;;;;;;;23.16;74.05;97200.91;3654548;80;43710;-25
2021/05/11 13:15:55;;;;;;;5.72;4.60;;;;;;;23.59;69.32;97202.02;3657874;80;44129;-26
2021/05/11 13:21:22;;;;;;;6.53;5.10;;;;;;;23.98;67.42;97202.02;3649889;80;44759;-24
2021/05/11 13:26:28;;;;;;;5.37;4.87;;;;;;;23.90;67.78;97201.99;3658363;80;42046;-25
2021/05/11 13:31:37;;;;;;;5.60;5.10;;;;;;;23.56;69.32;97202.59;3648367;81;44058;-25
2021/05/11 13:36:42;;;;;;;5.85;4.83;;;;;;;23.76;67.69;97200.34;3652577;80;44389;-25
2021/05/11 13:41:48;;;;;;;6.65;4.80;;;;;;;22.81;70.34;97201.66;3653506;80;44122;-25
2021/05/11 13:46:55;;;;;;;5.05;4.55;;;;;;;23.05;69.58;97190.45;3652967;81;43718;-25
2021/05/11 13:52:03;;;;;;;9.75;5.33;;;;;;;22.61;73.87;97194.47;3651513;81;43386;-25
2021/05/11 13:57:20;;;;;;;7.80;5.47;;;;;;;22.07;77.04;97195.58;3652282;80;43577;-25
2021/05/11 14:02:48;;;;;;;6.92;5.70;;;;;;;22.29;77.32;97197.33;3640126;80;44094;-25
2021/05/11 14:07:51;;;;;;;5.45;4.90;;;;;;;22.07;77.34;97197.52;3640212;80;43302;-24
2021/05/11 14:12:57;;;;;;;6.55;5.60;;;;;;;21.90;79.29;97197.70;3644851;80;42747;-24
2021/05/11 14:18:04;;;;;;;8.20;5.90;;;;;;;21.73;79.81;97201.97;3641917;81;43950;-24
2021/05/11 14:23:10;;;;;;;5.90;5.30;;;;;;;21.70;79.25;97186.33;3642589;81;43520;-23
2021/05/11 14:28:16;;;;;;;8.43;6.12;;;;;;;21.41;81.50;97185.81;3646400;80;43499;-24
2021/05/11 14:33:22;;;;;;;6.97;6.28;;;;;;;21.21;85.90;97194.16;3639481;81;43365;-24
2021/05/11 14:38:28;;;;;;;8.08;6.90;;;;;;;20.98;88.46;97190.39;3641659;80;43662;-25
2021/05/11 14:43:36;;;;;;;9.65;7.35;;;;;;;20.80;89.83;97197.05;3643453;80;44046;-22
2021/05/11 14:48:43;;;;;;;9.43;7.85;;;;;;;20.67;91.01;97185.39;3635293;81;43654;-24
2021/05/11 14:53:49;;;;;;;8.05;7.15;;;;;;;21.00;88.74;97202.72;3631912;81;43736;-24
2021/05/11 14:58:55;;;;;;;10.78;7.03;;;;;;;20.72;90.08;97182.69;3738116;77;43443;-22
2021/05/11 15:04:01;;;;;;;8.18;7.37;;;;;;;20.81;89.91;97182.28;3748547;78;44105;-23
2021/05/11 15:09:09;;;;;;;8.48;7.00;;;;;;;20.28;91.45;97187.69;3750931;78;43321;-23
2021/05/11 15:14:15;;;;;;;11.12;7.78;;;;;;;19.97;93.83;97199.58;3745362;77;43436;-23
2021/05/11 15:19:22;;;;;;;9.28;8.38;;;;;;;19.51;97.93;97209.80;3733915;78;43701;-23
2021/05/11 15:24:28;;;;;;;9.53;7.05;;;;;;;19.47;98.13;97220.40;3726125;78;44047;-23
2021/05/11 15:29:39;;;;;;;10.72;8.88;;;;;;;19.32;99.06;97218.25;3728824;78;43678;-23
2021/05/11 15:34:45;;;;;;;12.78;8.68;;;;;;;19.25;99.56;97242.98;3742344;78;43626;-25
2021/05/11 15:39:51;;;;;;;12.37;9.58;;;;;;;19.04;100.00;97259.53;3731281;78;43033;-23
2021/05/11 15:44:57;;;;;;;16.80;11.70;;;;;;;18.56;100.00;97271.66;3735381;77;44475;-23
2021/05/11 15:50:03;;;;;;;13.60;12.05;;;;;;;18.20;100.00;97277.19;3744314;78;44006;-23
2021/05/11 15:55:12;;;;;;;15.40;13.15;;;;;;;17.69;100.00;97264.55;3739097;78;43408;-23
2021/05/11 16:00:20;;;;;;;19.48;14.45;;;;;;;17.20;100.00;97253.29;3747525;76;43335;-23
2021/05/11 16:05:26;;;;;;;18.52;15.30;;;;;;;16.88;100.00;97250.77;3757488;78;44031;-23
2021/05/11 16:10:33;;;;;;;20.02;15.43;;;;;;;16.52;100.00;97256.61;3763073;77;43690;-24
2021/05/11 16:15:41;;;;;;;22.25;17.20;;;;;;;16.29;100.00;97244.52;3739573;78;44030;-23
2021/05/11 16:20:47;;;;;;;23.25;18.52;;;;;;;16.05;100.00;97210.14;3764998;76;43374;-23
2021/05/11 16:25:53;;;;;;;25.30;18.90;;;;;;;15.81;100.00;97197.72;3761294;77;44205;-23
2021/05/11 16:30:59;;;;;;;25.57;20.70;;;;;;;15.67;100.00;97185.64;3766160;78;44094;-24
2021/05/11 16:36:06;;;;;;;26.82;20.43;;;;;;;15.56;100.00;97187.73;3763619;77;44094;-24
2021/05/11 16:41:12;;;;;;;27.75;21.90;;;;;;;15.53;100.00;97193.06;3752355;77;44531;-24
2021/05/11 16:46:18;;;;;;;25.75;20.45;;;;;;;15.51;100.00;97207.41;3756843;78;44169;-24
2021/05/11 16:51:25;;;;;;;27.22;21.62;;;;;;;15.53;100.00;97237.03;3745838;77;43593;-23
2021/05/11 16:56:31;;;;;;;28.50;22.27;;;;;;;15.59;100.00;97259.73;3753532;77;43342;-23
2021/05/11 17:01:38;;;;;;;30.90;23.18;;;;;;;15.53;100.00;97241.10;3732794;79;43382;-23
2021/05/11 17:06:44;;;;;;;27.75;21.85;;;;;;;15.49;100.00;97235.80;3731348;79;43414;-23
2021/05/11 17:11:50;;;;;;;25.08;20.30;;;;;;;15.46;100.00;97226.23;3732094;78;43497;-23
2021/05/11 17:16:57;;;;;;;25.65;20.32;;;;;;;15.35;100.00;97235.09;3732892;78;43278;-24
2021/05/11 17:22:03;;;;;;;27.52;20.17;;;;;;;15.25;100.00;97224.73;3730466;78;44027;-23
2021/05/11 17:27:09;;;;;;;24.77;20.30;;;;;;;15.14;100.00;97215.95;3726736;78;44027;-24
2021/05/11 17:32:18;;;;;;;25.62;19.98;;;;;;;15.03;100.00;97222.93;3730562;78;43457;-22
2021/05/11 17:37:24;;;;;;;22.45;19.02;;;;;;;14.95;100.00;97244.36;3731558;79;43723;-22
2021/05/11 17:42:30;;;;;;;24.63;19.95;;;;;;;14.94;100.00;97250.83;3731298;78;44128;-23
2021/05/11 17:47:36;;;;;;;24.25;18.73;;;;;;;14.90;100.00;97272.64;3729767;79;43785;-23
2021/05/11 17:52:42;;;;;;;23.57;19.25;;;;;;;14.92;100.00;97295.80;3730490;78;43444;-21
2021/05/11 17:57:48;;;;;;;22.10;18.82;;;;;;;14.92;100.00;97301.73;3728715;78;43800;-21
2021/05/11 18:02:54;;;;;;;25.60;19.73;;;;;;;14.86;100.00;97308.04;3718196;79;43682;-23
2021/05/11 18:08:01;;;;;;;25.65;20.95;;;;;;;14.89;100.00;97313.00;3649353;79;44075;-23
2021/05/11 18:13:08;;;;;;;25.77;20.20;;;;;;;14.89;100.00;97329.27;3646055;80;44091;-23
2021/05/11 18:18:15;;;;;;;28.45;21.27;;;;;;;14.87;100.00;97340.89;3723568;79;43718;-23
2021/05/11 18:23:21;;;;;;;24.92;20.02;;;;;;;14.89;100.00;97338.77;3654653;80;43787;-23
2021/05/11 18:28:27;;;;;;;23.27;18.82;;;;;;;14.91;100.00;97352.95;3644624;80;43961;-23
2021/05/11 18:33:34;;;;;;;26.30;20.50;;;;;;;14.91;100.00;97351.08;3720712;79;44054;-24
2021/05/11 18:38:43;;;;;;;23.02;19.75;;;;;;;14.86;100.00;97355.48;3727675;79;44031;-23
2021/05/11 18:43:48;;;;;;;22.45;19.00;;;;;;;14.85;100.00;97359.24;3721813;79;43994;-23
2021/05/11 18:48:55;;;;;;;22.67;18.02;;;;;;;14.74;100.00;97368.36;3719125;79;44079;-23
2021/05/11 18:54:01;;;;;;;20.10;16.87;;;;;;;14.66;100.00;97382.09;3715948;79;43320;-23
2021/05/11 18:59:08;;;;;;;20.65;17.55;;;;;;;14.59;100.00;97394.84;3657771;78;43330;-23
2021/05/11 19:04:14;;;;;;;23.38;18.10;;;;;;;14.53;100.00;97380.27;3730246;79;43395;-23
2021/05/11 19:09:20;;;;;;;16.52;14.70;;;;;;;14.50;100.00;97373.91;3730347;78;43976;-23
2021/05/11 19:14:27;;;;;;;17.87;15.50;;;;;;;14.41;100.00;97357.04;3731825;78;44353;-22
2021/05/11 19:19:33;;;;;;;17.10;15.25;;;;;;;14.32;100.00;97355.61;3729607;79;44072;-25
2021/05/11 19:24:40;;;;;;;19.10;15.48;;;;;;;14.26;100.00;97353.77;3733044;78;44946;-24
2021/05/11 19:29:47;;;;;;;19.73;16.15;;;;;;;14.15;100.00;97346.59;3724448;78;44048;-24
2021/05/11 19:34:55;;;;;;;19.80;16.23;;;;;;;14.03;100.00;97348.27;3723310;79;44055;-23
2021/05/11 19:40:01;;;;;;;17.67;14.87;;;;;;;13.92;100.00;97357.03;3726195;78;43604;-23
2021/05/11 19:45:11;;;;;;;17.70;14.35;;;;;;;13.84;100.00;97362.13;3725376;79;44078;-24
2021/05/11 19:50:17;;;;;;;16.85;14.68;;;;;;;13.80;100.00;97364.42;3726513;79;43444;-24
2021/05/11 19:55:24;;;;;;;15.78;13.85;;;;;;;13.79;100.00;97365.47;3724817;78;44397;-24
2021/05/11 20:00:30;;;;;;;15.85;13.80;;;;;;;13.77;100.00;97355.36;3740971;77;44646;-24
2021/05/11 20:05:37;;;;;;;16.62;14.15;;;;;;;13.74;100.00;97359.83;3755187;77;44018;-23
2021/05/11 20:10:43;;;;;;;16.10;13.85;;;;;;;13.69;100.00;97365.05;3754491;77;44079;-23
2021/05/11 20:15:50;;;;;;;16.77;13.13;;;;;;;13.60;100.00;97361.70;3760205;76;43407;-23
2021/05/11 20:20:56;;;;;;;15.20;13.58;;;;;;;13.58;100.00;97373.78;3742114;78;43198;-23
2021/05/11 20:26:03;;;;;;;16.12;13.50;;;;;;;13.58;100.00;97352.95;3751170;78;44034;-23
2021/05/11 20:31:10;;;;;;;18.45;14.43;;;;;;;13.54;100.00;97353.90;3757993;78;44033;-23
2021/05/11 20:36:20;;;;;;;19.85;14.90;;;;;;;13.51;100.00;97358.89;3751817;77;44035;-23
2021/05/11 20:41:26;;;;;;;18.50;14.65;;;;;;;13.47;100.00;97361.69;3753832;77;44106;-23
2021/05/11 20:46:33;;;;;;;17.77;14.85;;;;;;;13.51;100.00;97365.13;3761768;78;43409;-23
2021/05/11 20:51:40;;;;;;;19.52;14.65;;;;;;;13.49;100.00;97357.73;3745772;78;44079;-23
2021/05/11 20:56:46;;;;;;;18.65;14.78;;;;;;;13.49;100.00;97356.91;3753639;76;43385;-24
2021/05/11 21:01:52;;;;;;;19.98;15.25;;;;;;;13.50;100.00;97366.69;3749356;78;43380;-23
2021/05/11 21:06:59;;;;;;;20.02;16.45;;;;;;;13.47;100.00;97356.28;3727641;78;44027;-23
2021/05/11 21:12:07;;;;;;;20.08;16.07;;;;;;;13.41;100.00;97341.70;3729575;78;44165;-23
2021/05/11 21:17:13;;;;;;;19.27;16.30;;;;;;;13.38;100.00;97352.39;3729550;79;43428;-22
2021/05/11 21:22:20;;;;;;;21.07;17.15;;;;;;;13.36;100.00;97357.67;3729144;78;43552;-23
2021/05/11 21:27:26;;;;;;;20.00;16.48;;;;;;;13.32;100.00;97370.78;3730500;78;44583;-23
2021/05/11 21:32:34;;;;;;;21.87;17.80;;;;;;;13.29;100.00;97382.00;3729330;78;43765;-23
2021/05/11 21:37:43;;;;;;;23.02;18.65;;;;;;;13.25;100.00;97394.28;3729960;78;43681;-22
2021/05/11 21:42:49;;;;;;;25.37;18.85;;;;;;;13.18;100.00;97403.73;3725121;78;43223;-23
2021/05/11 21:47:55;;;;;;;25.75;19.37;;;;;;;13.11;100.00;97396.13;3729009;79;44100;-24
2021/05/11 21:53:06;;;;;;;23.50;18.30;;;;;;;13.07;100.00;97411.89;3729432;79;43477;-23
2021/05/11 21:58:11;;;;;;;25.40;19.30;;;;;;;13.04;100.00;97426.34;3727437;78;42813;-22
2021/05/11 22:03:18;;;;;;;24.55;19.67;;;;;;;13.00;100.00;97442.14;3756210;77;44079;-21
2021/05/11 22:08:25;;;;;;;28.23;20.52;;;;;;;12.99;100.00;97450.46;3764953;78;44024;-21
2021/05/11 22:13:31;;;;;;;29.30;20.72;;;;;;;12.95;100.00;97452.20;3756529;77;43310;-22
2021/05/11 22:18:37;;;;;;;30.60;20.97;;;;;;;12.94;100.00;97466.75;3757076;78;42768;-22
2021/05/11 22:23:43;;;;;;;25.77;19.23;;;;;;;12.95;100.00;97478.39;3749172;78;43350;-24
2021/05/11 22:28:50;;;;;;;28.73;20.85;;;;;;;12.90;100.00;97485.75;3758084;77;43278;-24
2021/05/11 22:33:56;;;;;;;29.40;20.80;;;;;;;12.87;100.00;97481.27;3749833;76;44599;-24
2021/05/11 22:39:04;;;;;;;30.27;21.30;;;;;;;12.84;100.00;97475.75;3751044;78;44093;-26
2021/05/11 22:44:11;;;;;;;33.08;21.85;;;;;;;12.76;100.00;97475.88;3751406;77;43349;-25
2021/05/11 22:49:17;;;;;;;31.07;21.05;;;;;;;12.75;100.00;97471.55;3756666;78;43998;-25
2021/05/11 22:54:23;;;;;;;28.02;20.35;;;;;;;12.76;100.00;97465.92;3764756;77;44739;-25
2021/05/11 22:59:30;;;;;;;36.03;23.50;;;;;;;12.74;100.00;97469.34;3746769;77;43086;-25
2021/05/11 23:04:36;;;;;;;37.28;23.83;;;;;;;12.72;100.00;97471.41;3744359;78;43997;-26
2021/05/11 23:09:42;;;;;;;37.23;23.75;;;;;;;12.71;100.00;97468.38;3755034;78;43362;-25
2021/05/11 23:14:49;;;;;;;38.90;24.52;;;;;;;12.72;100.00;97459.23;3742421;78;44020;-26
2021/05/11 23:20:00;;;;;;;42.03;25.30;;;;;;;12.74;100.00;97463.12;3746272;78;44101;-26
2021/05/11 23:25:04;;;;;;;45.88;26.30;;;;;;;12.72;100.00;97474.10;3767151;78;44038;-26
2021/05/11 23:30:13;;;;;;;43.87;26.12;;;;;;;12.72;100.00;97466.53;3751495;78;44441;-26
2021/05/11 23:35:19;;;;;;;42.20;26.07;;;;;;;12.73;100.00;97468.20;3770775;78;43720;-27
2021/05/11 23:40:25;;;;;;;45.28;25.32;;;;;;;12.79;100.00;97460.13;3750951;78;44213;-25
2021/05/11 23:45:30;;;;;;;40.67;24.15;;;;;;;12.79;100.00;97471.44;3749008;78;43708;-25
2021/05/11 23:50:38;;;;;;;41.80;24.77;;;;;;;12.74;100.00;97475.27;3748825;78;43699;-25
2021/05/11 23:55:45;;;;;;;36.35;22.98;;;;;;;12.80;100.00;97462.30;3757310;78;43115;-25
